Time;durP1;ratioP1;P1;durP2;ratioP2;P2;SDS_P1;SDS_P2;PMS_P1;PMS_P2;Temp;Humidity;BMP_temperature;BMP_pressure;BME280_temperature;BME280_humidity;BME280_pressure;Samples;Min_cycle;Max_cycle;Signal;HPM_P1;HPM_P2
2024/01/28 00:00:00;;;;;;;22.60;6.40;;;;;;;1.13;83.03;98765.17;104844;1272;103695;-76
2024/01/28 00:02:28;;;;;;;26.40;6.90;;;;;;;1.12;83.13;98770.70;104902;1260;101218;-75
2024/01/28 00:04:56;;;;;;;23.10;6.30;;;;;;;1.08;83.11;98770.80;104701;1270;99996;-76
2024/01/28 00:07:24;;;;;;;27.10;6.60;;;;;;;1.05;83.09;98773.38;104689;1260;98005;-75
2024/01/28 00:09:51;;;;;;;23.20;7.20;;;;;;;1.05;83.12;98778.11;104670;1258;99250;-75
2024/01/28 00:12:19;;;;;;;23.70;6.50;;;;;;;1.03;83.25;98777.79;104722;1258;103627;-75
2024/01/28 00:14:47;;;;;;;25.90;7.80;;;;;;;1.01;83.47;98777.95;104708;1257;99930;-76
2024/01/28 00:17:14;;;;;;;19.10;6.50;;;;;;;0.99;83.37;98776.32;104699;1270;99951;-75
2024/01/28 00:19:42;;;;;;;29.50;7.90;;;;;;;0.99;83.50;98773.27;104376;1280;98055;-75
2024/01/28 00:22:10;;;;;;;22.40;6.90;;;;;;;0.97;83.57;98771.30;104673;1256;97900;-75
2024/01/28 00:24:37;;;;;;;19.00;6.40;;;;;;;0.93;83.49;98774.65;104690;1268;103545;-75
2024/01/28 00:27:05;;;;;;;21.70;6.10;;;;;;;0.90;83.48;98776.98;104655;1260;101747;-75
2024/01/28 00:29:33;;;;;;;21.30;7.20;;;;;;;0.87;83.41;98778.09;104657;1272;100102;-75
2024/01/28 00:32:01;;;;;;;24.20;7.10;;;;;;;0.86;83.40;98784.02;104734;1261;97927;-75
2024/01/28 00:34:28;;;;;;;22.00;6.80;;;;;;;0.85;83.48;98787.45;104722;1261;99795;-75
2024/01/28 00:36:56;;;;;;;23.80;7.40;;;;;;;0.87;83.52;98785.23;104698;1261;103760;-76
2024/01/28 00:39:24;;;;;;;23.50;7.40;;;;;;;0.88;83.52;98789.77;104706;1258;101163;-76
2024/01/28 00:41:52;;;;;;;23.30;6.60;;;;;;;0.89;83.52;98793.05;104712;1273;100017;-76
2024/01/28 00:44:20;;;;;;;22.60;6.90;;;;;;;0.89;83.46;98793.39;104620;1260;97899;-76
2024/01/28 00:46:47;;;;;;;23.90;7.00;;;;;;;0.89;83.41;98794.77;104707;1263;98410;-75
2024/01/28 00:49:15;;;;;;;18.80;6.40;;;;;;;0.90;83.40;98798.42;104603;1258;103492;-75
2024/01/28 00:51:43;;;;;;;18.30;7.40;;;;;;;0.92;83.38;98797.61;104707;1256;102030;-75
2024/01/28 00:54:10;;;;;;;25.10;7.30;;;;;;;0.94;83.38;98799.41;104630;1256;100069;-75
2024/01/28 00:56:38;;;;;;;22.30;7.30;;;;;;;0.95;83.53;98803.73;104769;1268;97940;-76
2024/01/28 00:59:06;;;;;;;25.70;7.20;;;;;;;0.96;83.40;98804.77;104740;1261;98475;-77
2024/01/28 01:01:33;;;;;;;21.00;7.40;;;;;;;0.97;83.45;98804.77;104668;1271;102129;-76
2024/01/28 01:04:01;;;;;;;21.20;7.00;;;;;;;0.99;83.42;98803.75;104698;1260;100573;-76
2024/01/28 01:06:29;;;;;;;18.10;6.00;;;;;;;1.02;83.42;98802.80;104640;1258;99666;-76
2024/01/28 01:08:56;;;;;;;22.80;6.80;;;;;;;1.03;83.29;98805.03;104594;1260;98839;-76
2024/01/28 01:11:24;;;;;;;19.90;7.30;;;;;;;1.03;83.36;98804.89;104600;1270;98341;-76
2024/01/28 01:13:52;;;;;;;18.50;7.40;;;;;;;1.01;83.19;98799.39;104630;1256;103273;-76
2024/01/28 01:16:20;;;;;;;26.00;7.10;;;;;;;0.99;83.16;98800.90;104710;1257;101128;-76
2024/01/28 01:18:48;;;;;;;21.60;6.90;;;;;;;1.00;83.26;98798.37;104740;1260;99960;-77
2024/01/28 01:21:15;;;;;;;19.30;7.50;;;;;;;1.00;83.26;98800.13;104618;1256;97940;-76
2024/01/28 01:23:43;;;;;;;21.00;7.50;;;;;;;1.02;83.27;98803.89;104680;1260;99576;-76
2024/01/28 01:26:11;;;;;;;19.00;6.60;;;;;;;1.04;83.29;98806.92;104695;1270;103543;-76
2024/01/28 01:28:38;;;;;;;18.30;6.60;;;;;;;1.06;83.40;98810.87;104709;1262;101596;-76
2024/01/28 01:31:06;;;;;;;22.20;6.80;;;;;;;1.08;83.40;98813.86;104732;1264;100207;-74
2024/01/28 01:33:34;;;;;;;16.90;6.60;;;;;;;1.11;83.38;98814.95;104631;1261;99113;-76
2024/01/28 01:36:01;;;;;;;16.40;6.60;;;;;;;1.12;83.44;98811.88;104717;1270;99697;-76
2024/01/28 01:38:29;;;;;;;20.30;6.50;;;;;;;1.12;83.51;98810.94;104723;1256;102643;-76
2024/01/28 01:40:58;;;;;;;24.00;7.80;;;;;;;1.13;83.49;98806.60;104608;1263;100189;-76
2024/01/28 01:43:26;;;;;;;19.20;6.70;;;;;;;1.14;83.57;98804.23;104683;1271;100066;-76
2024/01/28 01:45:53;;;;;;;18.40;5.90;;;;;;;1.16;83.50;98803.90;104838;1255;99121;-76
2024/01/28 01:48:23;;;;;;;23.40;6.30;;;;;;;1.16;83.50;98809.05;104643;1261;98450;-76
2024/01/28 01:50:51;;;;;;;21.70;6.80;;;;;;;1.15;83.41;98812.11;104774;1260;103571;-76
2024/01/28 01:53:19;;;;;;;25.80;8.60;;;;;;;1.17;83.46;98811.61;104692;1257;101616;-76
2024/01/28 01:55:48;;;;;;;22.90;7.20;;;;;;;1.20;83.56;98806.60;104662;1256;99844;-76
2024/01/28 01:58:16;;;;;;;24.30;7.60;;;;;;;1.22;83.50;98805.08;104652;1260;99207;-76
2024/01/28 02:00:47;;;;;;;28.40;8.60;;;;;;;1.24;83.49;98800.63;104693;1263;98354;-76
2024/01/28 02:03:15;;;;;;;21.40;6.90;;;;;;;1.24;83.37;98799.20;104680;1260;103519;-76
2024/01/28 02:05:43;;;;;;;23.10;7.00;;;;;;;1.21;83.34;98795.55;104650;1256;101695;-76
2024/01/28 02:08:10;;;;;;;25.40;7.70;;;;;;;1.20;83.37;98788.22;104669;1257;99994;-76
2024/01/28 02:10:38;;;;;;;25.20;8.00;;;;;;;1.20;83.43;98788.87;104681;1262;99231;-76
2024/01/28 02:13:07;;;;;;;22.40;7.30;;;;;;;1.21;83.56;98792.02;104769;1260;98418;-76
2024/01/28 02:15:38;;;;;;;24.50;7.10;;;;;;;1.22;83.54;98788.04;104685;1260;102087;-76
2024/01/28 02:18:07;;;;;;;21.30;7.30;;;;;;;1.23;83.50;98789.36;104722;1260;101365;-76
2024/01/28 02:20:34;;;;;;;19.10;7.30;;;;;;;1.25;83.53;98793.84;104624;1261;99234;-76
2024/01/28 02:23:04;;;;;;;21.20;6.10;;;;;;;1.24;83.51;98795.83;104738;1257;98036;-76
2024/01/28 02:25:33;;;;;;;25.90;7.90;;;;;;;1.21;83.56;98794.61;104780;1263;98430;-76
2024/01/28 02:28:00;;;;;;;22.30;7.40;;;;;;;1.22;83.60;98802.02;104653;1274;102214;-76
2024/01/28 02:30:28;;;;;;;18.90;7.40;;;;;;;1.25;83.61;98801.61;104666;1260;101238;-76
2024/01/28 02:32:56;;;;;;;21.00;7.80;;;;;;;1.26;83.66;98802.60;104761;1258;99953;-75
2024/01/28 02:35:23;;;;;;;23.30;8.10;;;;;;;1.26;83.63;98809.69;104609;1256;97913;-75
2024/01/28 02:37:51;;;;;;;23.70;8.60;;;;;;;1.27;83.43;98812.59;104649;1260;99600;-75
2024/01/28 02:40:20;;;;;;;27.10;8.30;;;;;;;1.28;83.49;98815.59;104730;1263;102559;-75
2024/01/28 02:42:48;;;;;;;26.10;9.60;;;;;;;1.29;83.52;98814.09;104545;1261;101465;-76
2024/01/28 02:45:16;;;;;;;25.00;9.80;;;;;;;1.31;83.51;98821.00;104694;1261;99027;-76
2024/01/28 02:47:43;;;;;;;32.80;9.40;;;;;;;1.33;83.66;98823.29;104755;1270;99356;-75
2024/01/28 02:50:12;;;;;;;29.00;9.70;;;;;;;1.33;83.59;98821.71;104753;1257;98043;-76
2024/01/28 02:52:40;;;;;;;26.10;8.70;;;;;;;1.32;83.53;98832.80;104664;1256;103568;-76
2024/01/28 02:55:08;;;;;;;20.50;8.60;;;;;;;1.32;83.55;98833.02;104652;1260;101088;-76
2024/01/28 02:57:36;;;;;;;17.60;8.10;;;;;;;1.29;83.64;98834.27;104629;1262;98826;-76
2024/01/28 03:00:04;;;;;;;27.20;10.20;;;;;;;1.27;83.69;98838.66;104671;1260;98138;-76
2024/01/28 03:02:32;;;;;;;24.00;7.90;;;;;;;1.25;83.67;98836.66;104767;1260;98418;-74
2024/01/28 03:05:00;;;;;;;29.80;10.00;;;;;;;1.28;83.68;98841.47;104716;1260;103582;-74
2024/01/28 03:07:27;;;;;;;29.60;9.20;;;;;;;1.30;83.70;98841.65;104427;1256;100564;-74
2024/01/28 03:09:55;;;;;;;29.40;10.20;;;;;;;1.29;83.78;98837.83;104621;1261;99908;-74
2024/01/28 03:12:23;;;;;;;27.40;9.20;;;;;;;1.30;83.80;98842.04;104683;1260;97914;-74
2024/01/28 03:14:50;;;;;;;27.80;8.70;;;;;;;1.30;83.79;98843.64;104675;1260;98394;-74
2024/01/28 03:17:18;;;;;;;29.40;9.20;;;;;;;1.33;83.84;98847.27;104675;1261;103539;-74
2024/01/28 03:19:46;;;;;;;24.00;9.30;;;;;;;1.37;83.91;98851.58;104683;1261;101417;-74
2024/01/28 03:22:14;;;;;;;20.30;9.40;;;;;;;1.38;83.97;98853.96;104677;1256;99407;-74
2024/01/28 03:24:42;;;;;;;24.90;8.90;;;;;;;1.38;83.92;98858.59;104694;1263;97944;-74
2024/01/28 03:27:09;;;;;;;25.00;9.00;;;;;;;1.35;83.97;98857.34;104678;1260;99244;-74
2024/01/28 03:29:37;;;;;;;19.20;7.80;;;;;;;1.35;84.01;98859.54;104687;1260;103635;-76
2024/01/28 03:32:12;;;;;;;17.80;7.40;;;;;;;1.35;83.96;98862.36;104630;1272;101337;-74
2024/01/28 03:34:41;;;;;;;19.20;7.30;;;;;;;1.38;84.10;98864.23;104680;1260;98746;-79
2024/01/28 03:37:11;;;;;;;18.30;7.30;;;;;;;1.42;84.15;98868.95;104623;1261;97926;-79
2024/01/28 03:39:41;;;;;;;58.20;19.70;;;;;;;1.45;84.07;98874.36;104669;1261;98466;-76
2024/01/28 03:42:12;;;;;;;26.00;9.90;;;;;;;1.49;84.10;98875.98;104665;1260;104641;-77
2024/01/28 03:45:00;;;;;;;36.90;12.90;;;;;;;1.50;84.15;98876.60;104668;1257;101402;-75
2024/01/28 03:47:34;;;;;;;52.80;18.20;;;;;;;1.50;84.12;98878.58;104630;1260;99833;-77
2024/01/28 03:50:22;;;;;;;50.70;20.10;;;;;;;1.52;84.11;98879.29;104598;1260;98825;-78
2024/01/28 03:52:55;;;;;;;41.50;16.80;;;;;;;1.53;84.20;98879.23;104712;1262;98447;-76
2024/01/28 03:55:23;;;;;;;50.40;18.20;;;;;;;1.49;84.18;98874.02;104654;1257;103180;-77
2024/01/28 03:58:00;;;;;;;41.10;14.80;;;;;;;1.48;84.16;98872.69;104732;1260;101494;-78
2024/01/28 04:00:29;;;;;;;26.70;13.00;;;;;;;1.44;84.29;98864.86;104647;1259;98582;-78
2024/01/28 04:03:38;;;;;;;33.00;14.40;;;;;;;1.42;84.27;98859.70;104664;1261;98746;-75
2024/01/28 04:06:11;;;;;;;48.10;18.50;;;;;;;1.42;84.48;98861.09;104703;1257;98433;-75
2024/01/28 04:08:39;;;;;;;39.30;15.90;;;;;;;1.41;84.50;98864.73;104678;1260;103550;-76
2024/01/28 04:11:13;;;;;;;37.70;13.60;;;;;;;1.38;84.39;98860.48;104641;1260;101364;-77
2024/01/28 04:13:47;;;;;;;27.10;11.90;;;;;;;1.36;84.36;98862.42;104692;1260;98611;-80
2024/01/28 04:16:43;;;;;;;28.90;12.50;;;;;;;1.33;84.43;98866.36;104783;1261;97980;-75
2024/01/28 04:19:19;;;;;;;26.80;11.70;;;;;;;1.32;84.48;98870.97;104662;1257;99096;-75
2024/01/28 04:22:07;;;;;;;28.00;11.70;;;;;;;1.32;84.52;98872.73;104808;1261;103810;-75
2024/01/28 04:25:09;;;;;;;27.10;12.00;;;;;;;1.30;84.65;98874.42;104636;1257;101513;-77
2024/01/28 04:27:57;;;;;;;34.00;14.10;;;;;;;1.32;84.79;98875.67;104638;1257;99885;-87
2024/01/28 04:30:56;;;;;;;39.60;16.60;;;;;;;1.37;84.78;98870.73;104755;1262;98839;-76
2024/01/28 04:33:32;;;;;;;31.50;15.00;;;;;;;1.38;84.86;98872.22;104709;1271;98450;-88
2024/01/28 04:36:00;;;;;;;32.70;14.10;;;;;;;1.37;84.83;98873.20;104668;1260;102708;-88
2024/01/28 04:38:28;;;;;;;35.00;16.70;;;;;;;1.36;84.83;98874.48;104745;1261;101427;-88
2024/01/28 04:41:02;;;;;;;34.30;16.00;;;;;;;1.36;84.90;98875.38;104703;1261;100038;-87
2024/01/28 04:44:10;;;;;;;25.20;12.60;;;;;;;1.37;85.04;98875.48;104684;1278;99157;-87
2024/01/28 04:46:48;;;;;;;29.70;12.40;;;;;;;1.37;85.01;98871.56;104677;1260;97906;-77
2024/01/28 04:49:19;;;;;;;29.90;12.50;;;;;;;1.39;85.16;98870.04;104661;1261;102281;-75
2024/01/28 04:51:47;;;;;;;27.20;13.50;;;;;;;1.43;85.31;98868.86;104641;1261;101407;-75
2024/01/28 04:54:19;;;;;;;20.90;11.30;;;;;;;1.43;85.29;98871.68;104680;1260;100005;-75
2024/01/28 04:56:47;;;;;;;24.10;11.60;;;;;;;1.42;85.24;98874.20;104698;1260;97994;-75
2024/01/28 04:59:15;;;;;;;22.80;11.10;;;;;;;1.46;85.37;98873.92;104723;1263;98533;-75
2024/01/28 05:01:43;;;;;;;22.30;11.00;;;;;;;1.49;85.45;98872.77;104683;1262;103872;-76
2024/01/28 05:04:16;;;;;;;24.20;10.80;;;;;;;1.51;85.47;98876.55;104635;1260;101607;-79
2024/01/28 05:06:46;;;;;;;24.10;11.30;;;;;;;1.52;85.30;98878.27;104783;1259;98997;-75
2024/01/28 05:09:22;;;;;;;20.00;10.90;;;;;;;1.52;85.33;98882.87;104744;1259;97990;-75
2024/01/28 05:12:31;;;;;;;23.20;10.40;;;;;;;1.52;85.41;98888.02;104720;1260;99240;-75
2024/01/28 05:15:08;;;;;;;21.80;10.10;;;;;;;1.47;85.31;98895.31;104631;1267;103320;-75
2024/01/28 05:17:39;;;;;;;19.20;11.10;;;;;;;1.45;85.34;98902.04;102508;1258;2980383;-76
2024/01/28 05:20:09;;;;;;;22.10;10.80;;;;;;;1.42;85.43;98910.75;104639;1257;98811;-75
2024/01/28 05:22:59;;;;;;;17.50;10.20;;;;;;;1.41;85.35;98916.51;104701;1260;97982;-75
2024/01/28 05:25:28;;;;;;;19.90;10.20;;;;;;;1.42;85.46;98916.97;104711;1262;99466;-77
2024/01/28 05:27:59;;;;;;;21.60;11.20;;;;;;;1.44;85.54;98918.22;104803;1260;103540;-86
2024/01/28 05:30:39;;;;;;;20.40;10.10;;;;;;;1.47;85.56;98922.98;104669;1264;101467;-87
2024/01/28 05:33:41;;;;;;;18.50;10.00;;;;;;;1.49;85.52;98925.82;104765;1260;100030;-77
2024/01/28 05:36:24;;;;;;;15.00;10.30;;;;;;;1.51;85.55;98928.20;104624;1262;98016;-78
2024/01/28 05:39:21;;;;;;;16.40;10.50;;;;;;;1.53;85.57;98930.17;104748;1269;99634;-76
2024/01/28 05:41:49;;;;;;;19.10;10.10;;;;;;;1.56;85.60;98928.52;104687;1256;103613;-77
2024/01/28 05:44:30;;;;;;;14.00;9.00;;;;;;;1.59;85.66;98922.77;104724;1257;100373;-75
2024/01/28 05:47:03;;;;;;;13.30;7.80;;;;;;;1.62;85.62;98923.27;104568;1256;99691;-76
2024/01/28 05:49:34;;;;;;;12.20;7.10;;;;;;;1.63;85.50;98924.39;104625;1256;98855;-75
2024/01/28 05:52:02;;;;;;;12.80;7.50;;;;;;;1.63;85.51;98927.21;104703;1257;97953;-74
2024/01/28 05:54:33;;;;;;;11.10;6.80;;;;;;;1.64;85.51;98930.36;104694;1260;103833;-75
2024/01/28 05:57:25;;;;;;;11.70;6.90;;;;;;;1.63;85.42;98927.45;104692;1260;101333;-77
2024/01/28 05:59:55;;;;;;;11.80;7.40;;;;;;;1.59;85.35;98930.26;104439;1268;98758;-80
2024/01/28 06:02:26;;;;;;;12.60;7.60;;;;;;;1.55;85.28;98936.42;104758;1275;97901;-76
2024/01/28 06:04:54;;;;;;;12.10;8.30;;;;;;;1.54;85.47;98939.11;104734;1272;98457;-86
2024/01/28 06:07:22;;;;;;;11.20;8.20;;;;;;;1.57;85.65;98948.48;104805;1273;103791;-88
2024/01/28 06:09:50;;;;;;;13.20;8.30;;;;;;;1.58;85.63;98948.88;104684;1262;101282;-86
2024/01/28 06:12:58;;;;;;;14.30;8.90;;;;;;;1.58;85.60;98948.89;104637;1261;99649;-87
2024/01/28 06:15:46;;;;;;;19.00;9.30;;;;;;;1.55;85.61;98953.23;104730;1259;97944;-78
2024/01/28 06:18:43;;;;;;;15.80;9.80;;;;;;;1.55;85.65;98951.67;104668;1261;98449;-77
2024/01/28 06:21:14;;;;;;;17.20;10.10;;;;;;;1.57;85.70;98950.61;104781;1261;104390;-77
2024/01/28 06:23:46;;;;;;;15.70;8.90;;;;;;;1.56;85.62;98953.89;104660;1262;101607;-75
2024/01/28 06:26:16;;;;;;;13.40;9.50;;;;;;;1.52;85.53;98956.86;104692;1260;99846;-77
2024/01/28 06:28:47;;;;;;;13.40;8.90;;;;;;;1.51;85.60;98962.03;104801;1260;98732;-76
2024/01/28 06:31:35;;;;;;;17.20;10.80;;;;;;;1.52;85.72;98960.95;104727;1262;98739;-86
2024/01/28 06:34:04;;;;;;;22.80;12.00;;;;;;;1.48;85.62;98960.66;104688;1256;103767;-87
2024/01/28 06:36:47;;;;;;;17.00;10.90;;;;;;;1.45;85.67;98963.72;104687;1262;101369;-92
2024/01/28 06:39:31;;;;;;;15.90;10.40;;;;;;;1.43;85.72;98967.67;104660;1269;100152;-87
2024/01/28 06:42:02;;;;;;;17.60;12.80;;;;;;;1.40;85.75;98968.55;104632;1261;97835;-76
2024/01/28 06:44:43;;;;;;;19.40;13.00;;;;;;;1.38;85.71;98972.08;104717;1262;97903;-89
2024/01/28 06:47:32;;;;;;;21.00;13.00;;;;;;;1.36;85.68;98976.12;104671;1260;103737;-76
2024/01/28 06:50:00;;;;;;;19.20;12.70;;;;;;;1.35;85.74;98979.07;104634;1267;100568;-75
2024/01/28 06:52:31;;;;;;;17.50;12.60;;;;;;;1.33;85.78;98982.04;104723;1259;99901;-76
2024/01/28 06:55:03;;;;;;;16.40;12.00;;;;;;;1.32;85.87;98986.38;104730;1256;98001;-75
2024/01/28 06:57:33;;;;;;;12.80;7.90;;;;;;;1.32;85.90;98990.44;104700;1262;97913;-76
2024/01/28 07:00:13;;;;;;;18.10;11.90;;;;;;;1.32;85.99;98991.02;104658;1271;103578;-89
2024/01/28 07:02:44;;;;;;;15.40;10.30;;;;;;;1.32;86.02;98989.04;104645;1260;100460;-75
2024/01/28 07:05:25;;;;;;;20.80;12.20;;;;;;;1.33;86.08;98994.27;104653;1260;100090;-77
2024/01/28 07:08:25;;;;;;;23.90;15.80;;;;;;;1.34;86.11;98998.48;104603;1256;98027;-76
2024/01/28 07:10:53;;;;;;;30.10;18.70;;;;;;;1.34;86.15;98998.63;104695;1262;98453;-74
2024/01/28 07:14:02;;;;;;;28.70;16.80;;;;;;;1.34;86.13;98996.50;104656;1257;103740;-74
2024/01/28 07:16:38;;;;;;;21.20;15.10;;;;;;;1.34;86.16;98995.80;104634;1257;101419;-74
2024/01/28 07:19:14;;;;;;;20.50;14.40;;;;;;;1.38;86.23;98994.64;104822;1260;97926;-74
2024/01/28 07:21:42;;;;;;;24.10;16.20;;;;;;;1.41;86.29;98998.50;104775;1257;98024;-75
2024/01/28 07:24:30;;;;;;;23.80;15.60;;;;;;;1.40;86.15;99000.86;104709;1273;99594;-74
2024/01/28 07:27:18;;;;;;;20.00;14.20;;;;;;;1.38;86.16;99004.70;104722;1263;103707;-75
2024/01/28 07:29:58;;;;;;;20.90;15.30;;;;;;;1.41;86.32;99005.41;104799;1262;101489;-75
2024/01/28 07:33:08;;;;;;;23.90;14.50;;;;;;;1.44;86.29;99003.80;104618;1262;100102;-74
2024/01/28 07:36:17;;;;;;;31.30;20.10;;;;;;;1.43;86.36;99006.64;104840;1267;97889;-74
2024/01/28 07:38:47;;;;;;;35.90;24.20;;;;;;;1.45;86.39;99005.11;104659;1263;98430;-77
2024/01/28 07:41:46;;;;;;;34.90;24.60;;;;;;;1.47;86.37;99006.18;104688;1260;103772;-74
2024/01/28 07:44:37;;;;;;;33.80;24.20;;;;;;;1.49;86.40;99006.21;104633;1262;100565;-75
2024/01/28 07:47:14;;;;;;;34.40;23.50;;;;;;;1.50;86.40;99008.47;104740;1262;99123;-77
2024/01/28 07:49:47;;;;;;;37.50;26.80;;;;;;;1.49;86.43;99005.70;104738;1262;97839;-75
2024/01/28 07:52:55;;;;;;;42.70;28.00;;;;;;;1.48;86.44;99004.30;104730;1262;98387;-75
2024/01/28 07:55:32;;;;;;;37.80;24.00;;;;;;;1.49;86.52;99008.52;104626;1262;103839;-74
2024/01/28 07:58:19;;;;;;;36.80;24.90;;;;;;;1.51;86.60;99011.06;104681;1256;101507;-75
2024/01/28 08:00:49;;;;;;;34.50;23.80;;;;;;;1.54;86.70;99023.95;104704;1262;99957;-76
2024/01/28 08:03:57;;;;;;;36.00;23.70;;;;;;;1.56;86.65;99028.73;104624;1262;99500;-75
2024/01/28 08:06:26;;;;;;;31.90;21.70;;;;;;;1.59;86.78;99026.55;104641;1262;98444;-75
2024/01/28 08:09:02;;;;;;;28.90;21.30;;;;;;;1.63;86.78;99031.55;104738;1262;103660;-76
2024/01/28 08:11:35;;;;;;;31.60;20.20;;;;;;;1.67;86.85;99030.54;104727;1262;100427;-74
2024/01/28 08:14:27;;;;;;;25.70;19.40;;;;;;;1.72;86.85;99030.50;104521;1264;98969;-77
2024/01/28 08:17:15;;;;;;;28.40;17.80;;;;;;;1.76;86.95;99028.94;104774;1261;98010;-74
2024/01/28 08:19:43;;;;;;;29.70;18.30;;;;;;;1.78;86.91;99029.87;104703;1262;99132;-77
2024/01/28 08:22:41;;;;;;;27.70;16.30;;;;;;;1.80;86.88;99024.98;104631;1256;103415;-75
2024/01/28 08:25:32;;;;;;;24.40;15.70;;;;;;;1.81;86.90;99028.59;104697;1256;101489;-78
2024/01/28 08:28:02;;;;;;;27.80;17.70;;;;;;;1.84;86.97;99031.42;104662;1256;99976;-74
2024/01/28 08:30:53;;;;;;;26.20;19.10;;;;;;;1.84;86.92;99033.35;104665;1277;97959;-76
2024/01/28 08:33:24;;;;;;;27.20;18.00;;;;;;;1.86;86.85;99036.77;104759;1268;98517;-74
2024/01/28 08:35:54;;;;;;;28.50;19.90;;;;;;;1.88;86.90;99035.73;104669;1262;102671;-76
2024/01/28 08:39:04;;;;;;;29.40;19.00;;;;;;;1.92;86.97;99038.98;104749;1257;101422;-74
2024/01/28 08:41:41;;;;;;;29.30;19.00;;;;;;;1.94;87.01;99038.83;104680;1260;100005;-75
2024/01/28 08:44:40;;;;;;;37.30;20.30;;;;;;;1.96;87.09;99039.89;104654;1262;97929;-75
2024/01/28 08:47:11;;;;;;;36.90;19.90;;;;;;;2.01;87.16;99045.20;104641;1262;97918;-86
2024/01/28 08:49:59;;;;;;;33.10;21.20;;;;;;;2.05;87.19;99043.09;104761;1256;103653;-88
2024/01/28 08:52:27;;;;;;;35.80;20.70;;;;;;;2.09;87.11;99047.02;104632;1263;101464;-88
2024/01/28 08:55:28;;;;;;;31.10;19.20;;;;;;;2.14;87.24;99050.19;104679;1270;100136;-75
2024/01/28 08:57:58;;;;;;;36.20;22.80;;;;;;;2.19;87.28;99051.39;104684;1257;97905;-77
2024/01/28 09:00:50;;;;;;;29.10;18.70;;;;;;;2.24;87.35;99054.95;104644;1262;98447;-77
2024/01/28 09:03:26;;;;;;;27.60;17.10;;;;;;;2.28;87.32;99059.78;104632;1269;102351;-76
2024/01/28 09:06:06;;;;;;;25.70;16.50;;;;;;;2.31;87.37;99057.73;104663;1260;101446;-76
2024/01/28 09:08:49;;;;;;;24.60;14.80;;;;;;;2.36;87.24;99060.92;104696;1262;99897;-77
2024/01/28 09:11:17;;;;;;;;;;;;;;;2.40;87.27;99063.93;104714;1263;97905;-75
2024/01/28 09:13:50;;;;;;;15.40;10.90;;;;;;;2.43;87.28;99061.04;104655;1262;98346;-75
2024/01/28 09:16:58;;;;;;;24.40;12.80;;;;;;;2.48;87.25;99060.67;104720;1263;103381;-87
2024/01/28 09:19:36;;;;;;;21.80;13.30;;;;;;;2.50;87.08;99064.58;104726;1262;101288;-86
2024/01/28 09:22:07;;;;;;;25.60;14.30;;;;;;;2.54;87.13;99066.60;104648;1262;100132;-85
2024/01/28 09:24:38;;;;;;;19.20;12.20;;;;;;;2.60;87.06;99068.33;104700;1262;97938;-87
2024/01/28 09:27:27;;;;;;;20.00;12.20;;;;;;;2.59;86.96;99068.73;104639;1260;98041;-86
2024/01/28 09:30:15;;;;;;;21.70;12.40;;;;;;;2.58;86.99;99074.45;104620;1263;104979;-88
2024/01/28 09:32:49;;;;;;;16.20;9.90;;;;;;;2.61;87.05;99078.51;104702;1261;101717;-75
2024/01/28 09:35:39;;;;;;;16.30;9.20;;;;;;;2.66;86.98;99079.36;104637;1271;99018;-75
2024/01/28 09:38:47;;;;;;;16.60;11.60;;;;;;;2.65;86.93;99074.65;104639;1256;97929;-77
2024/01/28 09:41:25;;;;;;;19.40;11.00;;;;;;;2.62;86.89;99075.77;104642;1262;98944;-77
2024/01/28 09:44:22;;;;;;;19.50;11.70;;;;;;;2.59;86.87;99075.42;104704;1270;102774;-77
2024/01/28 09:47:32;;;;;;;26.10;13.00;;;;;;;2.55;86.67;99073.79;104629;1256;101320;-77
2024/01/28 09:50:31;;;;;;;20.50;12.30;;;;;;;2.59;86.92;99072.83;104672;1262;100071;-77
2024/01/28 09:53:21;;;;;;;20.00;11.20;;;;;;;2.61;86.90;99079.05;104711;1256;99118;-76
2024/01/28 09:55:57;;;;;;;15.90;10.40;;;;;;;2.62;86.85;99081.59;104736;1256;101579;-76
2024/01/28 09:58:25;;;;;;;18.30;10.90;;;;;;;2.63;86.92;99081.69;104713;1262;103698;-75
2024/01/28 10:00:54;;;;;;;17.10;11.30;;;;;;;2.66;86.82;99077.41;104756;1261;101316;-75
2024/01/28 10:03:45;;;;;;;17.10;12.10;;;;;;;2.66;86.72;99074.54;104673;1262;99336;-75
2024/01/28 10:06:19;;;;;;;19.60;13.00;;;;;;;2.66;86.78;99078.50;104685;1262;98846;-75
2024/01/28 10:08:50;;;;;;;15.30;12.30;;;;;;;2.64;86.72;99081.84;104705;1272;98431;-75
2024/01/28 10:11:23;;;;;;;19.90;13.80;;;;;;;2.66;86.75;99078.47;104688;1262;103524;-76
2024/01/28 10:14:17;;;;;;;21.30;14.50;;;;;;;2.69;86.73;99077.11;104650;1262;101582;-77
2024/01/28 10:16:59;;;;;;;24.50;15.10;;;;;;;2.70;86.76;99080.10;104656;1257;100430;-77
2024/01/28 10:20:01;;;;;;;24.60;14.30;;;;;;;2.68;86.73;99078.79;104727;1262;97921;-75
2024/01/28 10:22:30;;;;;;;21.30;14.30;;;;;;;2.71;86.83;99075.73;104692;1262;97906;-75
2024/01/28 10:25:38;;;;;;;21.80;13.90;;;;;;;2.76;86.93;99080.30;104747;1262;103722;-76
2024/01/28 10:28:07;;;;;;;22.80;15.10;;;;;;;2.83;86.76;99077.48;104615;1261;100449;-76
2024/01/28 10:30:39;;;;;;;25.60;16.70;;;;;;;2.87;86.77;99075.67;104657;1257;100063;-77
2024/01/28 10:33:20;;;;;;;26.30;16.20;;;;;;;2.85;86.68;99078.30;104737;1262;99160;-76
2024/01/28 10:35:54;;;;;;;24.10;15.80;;;;;;;2.84;86.66;99080.90;104712;1262;98368;-77
2024/01/28 10:38:52;;;;;;;22.00;15.40;;;;;;;2.85;86.57;99081.70;104733;1260;103425;-77
2024/01/28 10:41:45;;;;;;;27.90;16.10;;;;;;;2.87;86.64;99079.06;104674;1262;101833;-76
2024/01/28 10:44:54;;;;;;;22.40;14.10;;;;;;;2.92;86.67;99078.71;104669;1261;100162;-77
2024/01/28 10:48:02;;;;;;;22.20;13.40;;;;;;;2.96;86.69;99080.16;104653;1262;98016;-75
2024/01/28 10:50:54;;;;;;;23.90;13.80;;;;;;;3.00;86.77;99080.39;104685;1262;99219;-89
2024/01/28 10:54:01;;;;;;;21.20;13.00;;;;;;;2.99;86.65;99076.92;104756;1263;102478;-75
2024/01/28 10:56:49;;;;;;;23.00;13.30;;;;;;;3.03;86.67;99075.99;104687;1278;101483;-75
2024/01/28 10:59:27;;;;;;;20.70;13.70;;;;;;;3.10;86.73;99075.98;104660;1261;99285;-76
2024/01/28 11:02:21;;;;;;;24.80;13.90;;;;;;;3.14;86.83;99076.70;104728;1262;98642;-78
2024/01/28 11:05:30;;;;;;;29.20;15.70;;;;;;;3.15;86.64;99075.33;104676;1270;98437;-77
2024/01/28 11:08:28;;;;;;;31.10;17.00;;;;;;;3.16;86.57;99080.81;104672;1258;103408;-88
2024/01/28 11:11:36;;;;;;;22.00;14.40;;;;;;;3.21;86.74;99078.43;104730;1262;100336;-76
2024/01/28 11:14:48;;;;;;;26.90;14.40;;;;;;;3.26;86.78;99072.51;104597;1263;99863;-86
2024/01/28 11:17:50;;;;;;;27.10;15.90;;;;;;;3.31;86.61;99071.60;104842;1264;97930;-87
2024/01/28 11:20:36;;;;;;;27.00;16.00;;;;;;;3.35;86.55;99071.27;104689;1262;97916;-87
2024/01/28 11:23:30;;;;;;;31.60;17.00;;;;;;;3.37;86.41;99071.46;104745;1262;103674;-87
2024/01/28 11:26:03;;;;;;;24.20;15.90;;;;;;;3.38;86.37;99061.93;104661;1260;101392;-89
2024/01/28 11:29:09;;;;;;;31.10;15.90;;;;;;;3.37;86.32;99066.30;104688;1270;100102;-76
2024/01/28 11:32:08;;;;;;;26.00;15.30;;;;;;;3.37;86.35;99068.45;104701;1260;97925;-86
2024/01/28 11:35:06;;;;;;;30.50;16.40;;;;;;;3.34;86.32;99070.33;104719;1274;98467;-87
2024/01/28 11:38:04;;;;;;;26.40;15.20;;;;;;;3.37;86.31;99071.32;104522;1268;103480;-86
2024/01/28 11:41:18;;;;;;;23.30;14.30;;;;;;;3.39;86.33;99070.98;104538;1265;100274;-88
2024/01/28 11:44:27;;;;;;;22.40;14.20;;;;;;;3.36;86.29;99074.77;104497;1264;98872;-85
2024/01/28 11:47:24;;;;;;;23.00;13.90;;;;;;;3.33;86.29;99073.35;104500;1264;99205;-87
2024/01/28 11:50:33;;;;;;;24.10;13.90;;;;;;;3.36;86.33;99073.55;104514;1270;98005;-77
2024/01/28 11:53:41;;;;;;;18.90;11.80;;;;;;;3.40;86.30;99067.45;104697;1262;103922;-73
2024/01/28 11:56:30;;;;;;;22.30;13.40;;;;;;;3.46;86.21;99071.96;104723;1263;101626;-74
2024/01/28 11:59:33;;;;;;;25.40;13.90;;;;;;;3.49;86.23;99070.08;104623;1269;100225;-76
2024/01/28 12:02:41;;;;;;;24.20;14.40;;;;;;;3.54;86.32;99078.73;104729;1260;97912;-78
2024/01/28 12:05:50;;;;;;;25.80;14.90;;;;;;;3.52;86.13;99087.29;104712;1262;98440;-78
2024/01/28 12:08:54;;;;;;;19.90;11.20;;;;;;;3.45;85.94;99091.42;104681;1263;103761;-87